Time;durP1;ratioP1;P1;durP2;ratioP2;P2;SDS_P1;SDS_P2;PMS_P1;PMS_P2;Temp;Humidity;BMP_temperature;BMP_pressure;BME280_temperature;BME280_humidity;BME280_pressure;Samples;Min_cycle;Max_cycle;Signal;HPM_P1;HPM_P2
2022/06/04 00:01:49;;;;;;;;;;;10.20;99.90;;;;;;5054990;28;20348;-77
2022/06/04 00:04:15;;;;;;;;;;;10.10;99.90;;;;;;5043585;28;20340;-77
2022/06/04 00:06:42;;;;;;;;;;;10.10;99.90;;;;;;5009179;28;19951;-77
2022/06/04 00:09:09;;;;;;;;;;;10.10;99.90;;;;;;5030210;28;19917;-78
2022/06/04 00:17:04;;;;;;;;;;;10.10;99.90;;;;;;5022199;28;19920;-78
2022/06/04 00:19:30;;;;;;;;;;;10.00;99.90;;;;;;5024048;28;20334;-75
2022/06/04 00:21:56;;;;;;;;;;;10.00;99.90;;;;;;5018602;28;20011;-78
2022/06/04 00:24:21;;;;;;;;;;;10.00;99.90;;;;;;5022220;28;20325;-74
2022/06/04 00:26:47;;;;;;;;;;;10.00;99.90;;;;;;5038656;28;19927;-76
2022/06/04 00:29:13;;;;;;;;;;;9.90;99.90;;;;;;5035966;28;19917;-76
2022/06/04 00:31:39;;;;;;;;;;;9.90;99.90;;;;;;5029416;28;19921;-77
2022/06/04 00:34:04;;;;;;;;;;;9.90;99.90;;;;;;5061738;28;19928;-75
2022/06/04 00:36:33;;;;;;;;;;;9.90;99.90;;;;;;5035479;28;19973;-77
2022/06/04 00:38:59;;;;;;;;;;;9.90;99.90;;;;;;5022444;28;20430;-76
2022/06/04 00:41:44;;;;;;;;;;;9.90;99.90;;;;;;5022700;28;20012;-78
2022/06/04 00:44:09;;;;;;;;;;;9.90;99.90;;;;;;5032437;28;19970;-78
2022/06/04 00:46:41;;;;;;;;;;;9.90;99.90;;;;;;5012011;28;19925;-75
2022/06/04 00:49:07;;;;;;;;;;;9.80;99.90;;;;;;5017101;28;19924;-78
2022/06/04 00:51:33;;;;;;;;;;;9.80;99.90;;;;;;5037101;28;19917;-77
2022/06/04 00:53:59;;;;;;;;;;;9.80;99.90;;;;;;5051917;28;19917;-75
2022/06/04 00:56:25;;;;;;;;;;;9.80;99.90;;;;;;5057881;28;19921;-78
2022/06/04 00:58:59;;;;;;;;;;;9.80;99.90;;;;;;5013201;28;19953;-77
2022/06/04 01:01:27;;;;;;;;;;;9.80;99.90;;;;;;5032960;28;19924;-76
2022/06/04 01:04:07;;;;;;;;;;;9.80;99.90;;;;;;5034368;28;20369;-74
2022/06/04 01:06:36;;;;;;;;;;;9.80;99.90;;;;;;5003945;28;20024;-78
2022/06/04 01:09:20;;;;;;;;;;;9.90;99.90;;;;;;5025763;28;19917;-81
2022/06/04 01:12:11;;;;;;;;;;;9.80;99.90;;;;;;4997053;28;19921;-76
2022/06/04 01:14:42;;;;;;;;;;;9.80;99.90;;;;;;5030474;28;20428;-79
2022/06/04 01:17:08;;;;;;;;;;;9.80;99.90;;;;;;5018459;28;20011;-75
2022/06/04 01:19:37;;;;;;;;;;;9.80;99.90;;;;;;5034431;28;20106;-76
2022/06/04 01:22:11;;;;;;;;;;;9.80;99.90;;;;;;5025385;28;19922;-78
2022/06/04 01:24:37;;;;;;;;;;;9.70;99.90;;;;;;5023497;28;19917;-79
2022/06/04 01:27:14;;;;;;;;;;;9.70;99.90;;;;;;5012190;28;19917;-78
2022/06/04 01:29:49;;;;;;;;;;;9.60;99.90;;;;;;5054371;28;20286;-76
2022/06/04 01:32:20;;;;;;;;;;;9.50;99.90;;;;;;5012450;28;20007;-74
2022/06/04 01:35:02;;;;;;;;;;;9.50;99.90;;;;;;5010983;28;19968;-77
2022/06/04 01:37:48;;;;;;;;;;;9.50;99.90;;;;;;5025408;28;19940;-76
2022/06/04 01:43:00;;;;;;;;;;;9.50;99.90;;;;;;5031598;28;20489;-79
2022/06/04 01:45:27;;;;;;;;;;;9.40;99.90;;;;;;5056238;28;19921;-79
2022/06/04 01:47:55;;;;;;;;;;;9.40;99.90;;;;;;5012051;28;19917;-75
2022/06/04 01:50:23;;;;;;;;;;;9.30;99.90;;;;;;5011858;28;19917;-74
2022/06/04 01:52:50;;;;;;;;;;;9.20;99.90;;;;;;5044367;28;20012;-78
2022/06/04 01:55:21;;;;;;;;;;;9.20;99.90;;;;;;5028265;28;19918;-79
2022/06/04 01:57:51;;;;;;;;;;;9.20;99.90;;;;;;5044388;28;19925;-78
2022/06/04 02:00:25;;;;;;;;;;;9.10;99.90;;;;;;5028083;28;19964;-76
2022/06/04 02:02:55;;;;;;;;;;;9.10;99.90;;;;;;4978695;28;19929;-78
2022/06/04 02:05:22;;;;;;;;;;;9.00;99.90;;;;;;5006288;28;19937;-77
2022/06/04 02:07:49;;;;;;;;;;;8.90;99.90;;;;;;5035472;28;19997;-81
2022/06/04 02:10:25;;;;;;;;;;;8.90;99.90;;;;;;4993560;28;19952;-75
2022/06/04 02:12:51;;;;;;;;;;;8.90;99.90;;;;;;5044438;28;20044;-77
2022/06/04 02:15:19;;;;;;;;;;;8.90;99.90;;;;;;5046999;28;19918;-77
2022/06/04 02:17:49;;;;;;;;;;;8.80;99.90;;;;;;5013768;28;19961;-76
2022/06/04 02:20:14;;;;;;;;;;;8.80;99.90;;;;;;5011306;28;20012;-79
2022/06/04 02:22:40;;;;;;;;;;;8.80;99.90;;;;;;5032516;28;20419;-77
2022/06/04 02:25:07;;;;;;;;;;;8.90;99.90;;;;;;4997700;28;19917;-79
2022/06/04 02:27:33;;;;;;;;;;;8.90;99.90;;;;;;5016550;28;20274;-76
2022/06/04 02:29:59;;;;;;;;;;;8.90;99.90;;;;;;5014657;28;19924;-77
2022/06/04 02:32:57;;;;;;;;;;;8.90;99.90;;;;;;5048122;28;19928;-76
2022/06/04 02:35:26;;;;;;;;;;;8.90;99.90;;;;;;4963205;28;19925;-77
2022/06/04 02:37:58;;;;;;;;;;;8.80;99.90;;;;;;5015981;28;20330;-76
2022/06/04 02:40:23;;;;;;;;;;;8.80;99.90;;;;;;5023550;28;19917;-75
2022/06/04 02:42:57;;;;;;;;;;;8.80;99.90;;;;;;5014599;28;20400;-75
2022/06/04 02:45:34;;;;;;;;;;;8.80;99.90;;;;;;5015146;28;20278;-77
2022/06/04 02:48:09;;;;;;;;;;;8.90;99.90;;;;;;5001867;28;19972;-79
2022/06/04 02:50:37;;;;;;;;;;;8.90;99.90;;;;;;5017593;28;19918;-76
2022/06/04 02:53:04;;;;;;;;;;;9.00;99.90;;;;;;5028243;28;20388;-78
2022/06/04 02:55:32;;;;;;;;;;;9.00;99.90;;;;;;5027750;28;19939;-78
2022/06/04 02:58:01;;;;;;;;;;;9.10;99.90;;;;;;5034227;28;20345;-75
2022/06/04 03:00:28;;;;;;;;;;;9.10;99.90;;;;;;5034062;28;19921;-78
2022/06/04 03:02:53;;;;;;;;;;;9.10;99.90;;;;;;5024645;28;19971;-79
2022/06/04 03:05:20;;;;;;;;;;;9.10;99.90;;;;;;5026833;28;20333;-78
2022/06/04 03:07:48;;;;;;;;;;;9.10;99.90;;;;;;5021665;28;19963;-79
2022/06/04 03:10:33;;;;;;;;;;;9.10;99.90;;;;;;5031218;28;19917;-77
2022/06/04 03:12:59;;;;;;;;;;;9.10;99.90;;;;;;5009665;28;20023;-74
2022/06/04 03:15:25;;;;;;;;;;;9.00;99.90;;;;;;5036380;28;19971;-75
2022/06/04 03:17:51;;;;;;;;;;;9.00;99.90;;;;;;5024665;28;19920;-79
2022/06/04 03:20:18;;;;;;;;;;;9.00;99.90;;;;;;5020639;28;19917;-80
2022/06/04 03:22:44;;;;;;;;;;;9.10;99.90;;;;;;5038369;28;19921;-74
2022/06/04 03:25:10;;;;;;;;;;;9.20;99.90;;;;;;5030682;28;19927;-77
2022/06/04 03:27:35;;;;;;;;;;;9.20;99.90;;;;;;5050199;28;19923;-74
2022/06/04 03:30:01;;;;;;;;;;;9.20;99.90;;;;;;5043104;28;19918;-76
2022/06/04 03:32:27;;;;;;;;;;;9.30;99.90;;;;;;5018877;28;19921;-77
2022/06/04 03:34:53;;;;;;;;;;;9.30;99.90;;;;;;5036167;28;19917;-79
2022/06/04 03:37:18;;;;;;;;;;;9.40;99.90;;;;;;5021111;28;19917;-77
2022/06/04 03:39:44;;;;;;;;;;;9.40;99.90;;;;;;5019980;28;20258;-78
2022/06/04 03:42:09;;;;;;;;;;;9.40;99.90;;;;;;5023116;28;19932;-76
2022/06/04 03:44:35;;;;;;;;;;;9.40;99.90;;;;;;5032580;28;20362;-74
2022/06/04 03:47:01;;;;;;;;;;;9.40;99.90;;;;;;5017271;28;20902;-76
2022/06/04 03:49:26;;;;;;;;;;;9.40;99.90;;;;;;5026866;28;19929;-78
2022/06/04 03:51:52;;;;;;;;;;;9.40;99.90;;;;;;5023290;28;19992;-74
2022/06/04 03:54:52;;;;;;;;;;;9.40;99.90;;;;;;5003877;28;20028;-77
2022/06/04 03:59:49;;;;;;;;;;;9.40;99.90;;;;;;5013156;28;19917;-79
2022/06/04 04:02:15;;;;;;;;;;;9.40;99.90;;;;;;5029080;28;19967;-79
2022/06/04 04:04:41;;;;;;;;;;;9.40;99.90;;;;;;5023522;28;19921;-80
2022/06/04 04:07:06;;;;;;;;;;;9.50;99.90;;;;;;4999425;28;19917;-78
2022/06/04 04:09:32;;;;;;;;;;;9.50;99.90;;;;;;5049791;28;19917;-78
2022/06/04 04:11:58;;;;;;;;;;;9.60;99.90;;;;;;5030055;28;19917;-76
2022/06/04 04:14:24;;;;;;;;;;;9.70;99.90;;;;;;5013172;28;19924;-76
2022/06/04 04:16:49;;;;;;;;;;;9.70;99.90;;;;;;4980536;28;19921;-76
2022/06/04 04:19:15;;;;;;;;;;;9.70;99.90;;;;;;5005815;28;20366;-78
2022/06/04 04:21:40;;;;;;;;;;;9.70;99.90;;;;;;5019758;28;19957;-79
2022/06/04 04:24:07;;;;;;;;;;;9.80;99.90;;;;;;5032458;28;19924;-77
2022/06/04 04:26:32;;;;;;;;;;;9.80;99.90;;;;;;5031486;28;20004;-78
2022/06/04 04:28:58;;;;;;;;;;;9.90;99.90;;;;;;5003026;28;19969;-78
2022/06/04 04:31:23;;;;;;;;;;;10.00;99.90;;;;;;5015823;28;20428;-78
2022/06/04 04:33:49;;;;;;;;;;;10.00;99.90;;;;;;5022280;28;19921;-78
2022/06/04 04:36:15;;;;;;;;;;;10.00;99.90;;;;;;4996773;28;20281;-77
2022/06/04 04:38:40;;;;;;;;;;;10.10;99.90;;;;;;5006527;28;19921;-77
2022/06/04 04:41:10;;;;;;;;;;;10.10;99.90;;;;;;5015341;28;19921;-77
2022/06/04 04:43:36;;;;;;;;;;;10.20;99.90;;;;;;5023168;28;19935;-77
2022/06/04 04:46:07;;;;;;;;;;;10.30;99.90;;;;;;5031524;28;19921;-80
2022/06/04 04:48:33;;;;;;;;;;;10.30;99.90;;;;;;5024295;28;19925;-77
2022/06/04 04:50:58;;;;;;;;;;;10.40;99.90;;;;;;5014166;28;19925;-77
2022/06/04 04:53:24;;;;;;;;;;;10.50;99.90;;;;;;5032396;28;19995;-76
2022/06/04 04:55:49;;;;;;;;;;;10.60;99.90;;;;;;5032329;28;20008;-77
2022/06/04 04:58:15;;;;;;;;;;;10.70;99.90;;;;;;5022490;28;19917;-79
2022/06/04 05:00:41;;;;;;;;;;;10.80;99.90;;;;;;5016094;28;20370;-79
2022/06/04 05:03:07;;;;;;;;;;;10.90;99.90;;;;;;5021939;28;20313;-77
2022/06/04 05:05:33;;;;;;;;;;;11.00;99.90;;;;;;5016112;28;20046;-75
2022/06/04 05:07:58;;;;;;;;;;;11.10;99.90;;;;;;5021614;28;19924;-79
2022/06/04 05:10:24;;;;;;;;;;;11.20;99.90;;;;;;5045860;28;19967;-75
2022/06/04 05:12:54;;;;;;;;;;;11.20;99.90;;;;;;5022337;28;20296;-77
2022/06/04 05:15:20;;;;;;;;;;;11.30;99.90;;;;;;5031668;28;19925;-78
2022/06/04 05:17:45;;;;;;;;;;;11.40;99.90;;;;;;5050643;28;19921;-76
2022/06/04 05:20:11;;;;;;;;;;;11.60;99.90;;;;;;5030287;28;19925;-76
2022/06/04 05:22:37;;;;;;;;;;;11.60;99.90;;;;;;5023564;28;19921;-80
2022/06/04 05:25:03;;;;;;;;;;;11.70;99.90;;;;;;5013350;28;19941;-80
2022/06/04 05:27:29;;;;;;;;;;;11.70;99.90;;;;;;5023514;28;20371;-78
2022/06/04 05:29:56;;;;;;;;;;;11.80;99.90;;;;;;5018102;28;19968;-79
2022/06/04 05:32:21;;;;;;;;;;;11.90;99.90;;;;;;5031713;28;20404;-79
2022/06/04 05:34:47;;;;;;;;;;;11.90;99.90;;;;;;5030886;28;19974;-74
2022/06/04 05:37:13;;;;;;;;;;;12.00;99.90;;;;;;5019455;28;19960;-76
2022/06/04 05:39:38;;;;;;;;;;;12.00;99.90;;;;;;5045036;28;20272;-78
2022/06/04 05:42:06;;;;;;;;;;;12.10;99.90;;;;;;5011515;28;19922;-76
2022/06/04 05:44:32;;;;;;;;;;;12.10;99.90;;;;;;5011353;28;19960;-77
2022/06/04 05:46:58;;;;;;;;;;;12.20;99.90;;;;;;5023360;28;19960;-76
2022/06/04 05:49:24;;;;;;;;;;;12.20;99.90;;;;;;5015275;28;20015;-76
2022/06/04 05:51:51;;;;;;;;;;;12.30;99.90;;;;;;5021571;28;20294;-76
2022/06/04 05:54:17;;;;;;;;;;;12.30;99.90;;;;;;5027997;28;19967;-77
2022/06/04 05:56:44;;;;;;;;;;;12.40;99.90;;;;;;4995422;28;19917;-80
2022/06/04 05:59:11;;;;;;;;;;;12.50;99.90;;;;;;5024382;28;20008;-78
2022/06/04 06:01:38;;;;;;;;;;;12.60;99.90;;;;;;4994925;28;20499;-79
2022/06/04 06:04:04;;;;;;;;;;;12.60;99.90;;;;;;5014973;28;19917;-76
2022/06/04 06:06:30;;;;;;;;;;;12.70;99.90;;;;;;5031106;28;19948;-79
2022/06/04 06:08:57;;;;;;;;;;;12.80;99.90;;;;;;5029412;28;19917;-77
2022/06/04 06:11:22;;;;;;;;;;;13.00;99.90;;;;;;5010102;28;19917;-78
2022/06/04 06:13:49;;;;;;;;;;;13.20;99.90;;;;;;5032788;28;20427;-77
2022/06/04 06:16:16;;;;;;;;;;;13.50;99.90;;;;;;5019331;28;19997;-76
2022/06/04 06:18:42;;;;;;;;;;;13.70;99.90;;;;;;5011207;28;19932;-77
2022/06/04 06:21:15;;;;;;;;;;;13.90;99.90;;;;;;4994207;28;19921;-76
2022/06/04 06:23:41;;;;;;;;;;;14.10;99.90;;;;;;5031051;28;19959;-77
2022/06/04 06:26:11;;;;;;;;;;;14.30;99.90;;;;;;5012264;28;19917;-76
2022/06/04 06:28:37;;;;;;;;;;;14.40;99.90;;;;;;4998675;28;20429;-77
2022/06/04 06:31:04;;;;;;;;;;;14.50;99.90;;;;;;4991891;28;19922;-78
2022/06/04 06:33:29;;;;;;;;;;;14.60;99.90;;;;;;5010615;28;19948;-77
2022/06/04 06:35:56;;;;;;;;;;;14.70;99.90;;;;;;5012087;28;19917;-79
2022/06/04 06:38:28;;;;;;;;;;;14.90;99.90;;;;;;5022393;28;19918;-77
2022/06/04 06:40:54;;;;;;;;;;;15.00;99.90;;;;;;5013126;28;20024;-77
2022/06/04 06:43:34;;;;;;;;;;;14.90;99.90;;;;;;5036992;28;20321;-76
2022/06/04 06:46:04;;;;;;;;;;;15.00;99.90;;;;;;5014916;28;20355;-77
2022/06/04 06:48:33;;;;;;;;;;;15.00;99.90;;;;;;5052161;28;20394;-80
2022/06/04 06:51:04;;;;;;;;;;;15.20;99.90;;;;;;5015804;28;19928;-78
2022/06/04 06:53:29;;;;;;;;;;;15.40;99.90;;;;;;5031046;28;20282;-80
2022/06/04 06:55:55;;;;;;;;;;;15.40;99.90;;;;;;5047719;28;19965;-81
2022/06/04 06:58:21;;;;;;;;;;;15.30;99.90;;;;;;5046692;28;20365;-76
2022/06/04 07:00:46;;;;;;;;;;;15.10;99.90;;;;;;5050397;28;19917;-79
2022/06/04 07:03:12;;;;;;;;;;;14.90;99.90;;;;;;5029297;28;19917;-76
2022/06/04 07:05:37;;;;;;;;;;;14.60;99.90;;;;;;5014505;28;19922;-78
2022/06/04 07:08:03;;;;;;;;;;;14.30;99.90;;;;;;5010799;28;19971;-82
2022/06/04 07:10:29;;;;;;;;;;;14.20;99.90;;;;;;5007885;28;20278;-80
2022/06/04 07:12:55;;;;;;;;;;;14.00;99.90;;;;;;4995719;28;19996;-75
2022/06/04 07:15:20;;;;;;;;;;;13.80;99.90;;;;;;5035172;28;19917;-75
2022/06/04 07:17:46;;;;;;;;;;;13.80;99.90;;;;;;5040784;28;19921;-79
2022/06/04 07:20:12;;;;;;;;;;;13.80;99.90;;;;;;5018720;28;19940;-81
2022/06/04 07:22:37;;;;;;;;;;;13.90;99.90;;;;;;5034228;28;20247;-78
2022/06/04 07:25:03;;;;;;;;;;;14.20;99.90;;;;;;5020800;28;19964;-78
2022/06/04 07:27:28;;;;;;;;;;;14.40;99.90;;;;;;5033712;28;19917;-77
2022/06/04 07:29:54;;;;;;;;;;;14.50;99.90;;;;;;5032044;28;19917;-79
2022/06/04 07:32:20;;;;;;;;;;;14.70;99.90;;;;;;5046881;28;19929;-77
2022/06/04 07:34:46;;;;;;;;;;;14.90;99.90;;;;;;5015339;28;19924;-76
2022/06/04 07:37:12;;;;;;;;;;;15.00;99.90;;;;;;5038338;28;20007;-78
2022/06/04 07:39:37;;;;;;;;;;;15.10;99.90;;;;;;5032762;28;20014;-76
2022/06/04 07:42:05;;;;;;;;;;;15.10;99.90;;;;;;5033256;28;20402;-76
2022/06/04 07:44:30;;;;;;;;;;;15.20;99.90;;;;;;5042046;28;20016;-77
2022/06/04 07:46:56;;;;;;;;;;;15.30;99.90;;;;;;5006559;28;20000;-78
2022/06/04 07:49:22;;;;;;;;;;;15.30;99.90;;;;;;5016009;28;19924;-77
2022/06/04 07:51:48;;;;;;;;;;;15.40;99.90;;;;;;5023279;28;19992;-78
2022/06/04 07:54:14;;;;;;;;;;;15.40;99.90;;;;;;5063622;28;20004;-80
2022/06/04 07:56:40;;;;;;;;;;;15.50;99.90;;;;;;4993753;28;19928;-75
2022/06/04 07:59:07;;;;;;;;;;;15.50;99.90;;;;;;5027483;28;19917;-75
2022/06/04 08:01:32;;;;;;;;;;;15.50;99.90;;;;;;5034716;28;20489;-81
2022/06/04 08:03:58;;;;;;;;;;;15.60;99.90;;;;;;5030635;28;19917;-79
2022/06/04 08:06:24;;;;;;;;;;;15.70;99.90;;;;;;5013607;28;19971;-78
2022/06/04 08:08:51;;;;;;;;;;;15.70;99.90;;;;;;5013403;28;19927;-78
2022/06/04 08:11:33;;;;;;;;;;;15.80;99.90;;;;;;5013423;28;19925;-75
2022/06/04 08:14:00;;;;;;;;;;;15.90;99.90;;;;;;5033005;28;19920;-79
2022/06/04 08:16:25;;;;;;;;;;;16.00;99.90;;;;;;5034317;28;20393;-76
2022/06/04 08:18:51;;;;;;;;;;;16.20;99.90;;;;;;5033727;28;19975;-78
2022/06/04 08:21:16;;;;;;;;;;;16.20;99.90;;;;;;5049186;28;19925;-78
2022/06/04 08:23:44;;;;;;;;;;;16.30;99.90;;;;;;5032423;28;19929;-80
2022/06/04 08:26:10;;;;;;;;;;;16.40;99.90;;;;;;5026128;28;19920;-78
2022/06/04 08:28:36;;;;;;;;;;;16.20;99.90;;;;;;5029577;28;19924;-80
2022/06/04 08:31:03;;;;;;;;;;;16.30;99.90;;;;;;5027190;28;20247;-76
2022/06/04 08:33:29;;;;;;;;;;;16.30;99.90;;;;;;5048493;28;19916;-73
2022/06/04 08:35:55;;;;;;;;;;;16.20;99.90;;;;;;5050018;28;19917;-80
2022/06/04 08:38:20;;;;;;;;;;;16.20;99.90;;;;;;5065429;28;20365;-77
2022/06/04 08:40:48;;;;;;;;;;;16.20;99.90;;;;;;5035866;28;19924;-79
2022/06/04 08:43:23;;;;;;;;;;;16.20;99.90;;;;;;5025199;28;19971;-80
2022/06/04 08:45:48;;;;;;;;;;;16.30;99.90;;;;;;5031613;28;19929;-80
2022/06/04 08:48:32;;;;;;;;;;;16.30;99.90;;;;;;5022775;28;20289;-76
2022/06/04 08:50:58;;;;;;;;;;;16.30;99.90;;;;;;5039688;28;20448;-79
2022/06/04 08:53:28;;;;;;;;;;;16.30;99.90;;;;;;5048928;28;20011;-76
2022/06/04 08:58:46;;;;;;;;;;;16.30;99.90;;;;;;5020406;28;19917;-79
2022/06/04 09:01:11;;;;;;;;;;;16.30;99.90;;;;;;5012217;28;19922;-76
2022/06/04 09:03:47;;;;;;;;;;;16.30;99.90;;;;;;4996079;28;19917;-75
2022/06/04 09:06:18;;;;;;;;;;;16.30;99.90;;;;;;5023251;28;19924;-76
2022/06/04 09:08:44;;;;;;;;;;;16.80;99.90;;;;;;5048291;28;19917;-77
2022/06/04 09:11:15;;;;;;;;;;;16.50;99.90;;;;;;5026430;28;19921;-80
2022/06/04 09:13:44;;;;;;;;;;;16.60;99.90;;;;;;5028962;28;19959;-76
2022/06/04 09:16:15;;;;;;;;;;;16.60;99.90;;;;;;5020654;28;19925;-77
2022/06/04 09:18:41;;;;;;;;;;;16.50;99.90;;;;;;5008908;28;20290;-79
2022/06/04 09:21:09;;;;;;;;;;;16.60;99.90;;;;;;4991435;28;19921;-78
2022/06/04 09:23:35;;;;;;;;;;;16.60;99.90;;;;;;5025941;28;20402;-75
2022/06/04 09:26:04;;;;;;;;;;;16.70;99.90;;;;;;5024649;28;19916;-75
2022/06/04 09:28:48;;;;;;;;;;;16.80;99.90;;;;;;5041444;28;20421;-79
2022/06/04 09:31:17;;;;;;;;;;;16.70;99.90;;;;;;4994809;28;19921;-75
2022/06/04 09:33:43;;;;;;;;;;;16.60;99.90;;;;;;5020417;28;19924;-76
2022/06/04 09:36:14;;;;;;;;;;;16.60;99.90;;;;;;5064309;28;19924;-78
2022/06/04 09:38:41;;;;;;;;;;;16.80;99.90;;;;;;5005158;28;19921;-79
2022/06/04 09:41:18;;;;;;;;;;;17.00;99.90;;;;;;5010557;28;19922;-75
2022/06/04 09:43:58;;;;;;;;;;;17.20;99.90;;;;;;5014242;28;20093;-75
2022/06/04 09:46:24;;;;;;;;;;;17.30;99.90;;;;;;4996592;28;20060;-75
2022/06/04 09:48:51;;;;;;;;;;;17.30;99.90;;;;;;5039653;28;20282;-78
2022/06/04 09:51:24;;;;;;;;;;;17.20;99.90;;;;;;5016855;28;19992;-80
2022/06/04 09:54:03;;;;;;;;;;;17.30;99.90;;;;;;5018915;28;19921;-79
2022/06/04 09:56:31;;;;;;;;;;;17.30;99.90;;;;;;5019237;28;19917;-76
2022/06/04 09:59:06;;;;;;;;;;;17.40;99.90;;;;;;5064864;28;19949;-78
2022/06/04 10:01:33;;;;;;;;;;;17.20;99.90;;;;;;5014308;28;19929;-77
2022/06/04 10:04:10;;;;;;;;;;;17.20;99.90;;;;;;5031886;28;19917;-77
2022/06/04 10:06:36;;;;;;;;;;;17.10;99.90;;;;;;5019709;28;19917;-78
2022/06/04 10:11:48;;;;;;;;;;;16.90;99.90;;;;;;5025523;28;20000;-79
2022/06/04 10:14:14;;;;;;;;;;;16.90;99.90;;;;;;5030670;28;20358;-77
2022/06/04 10:16:41;;;;;;;;;;;17.00;99.90;;;;;;5032334;28;19970;-74
2022/06/04 10:19:17;;;;;;;;;;;16.90;99.90;;;;;;5038927;28;19917;-76
2022/06/04 10:21:44;;;;;;;;;;;17.10;99.90;;;;;;5014377;28;20292;-76
2022/06/04 10:24:18;;;;;;;;;;;17.20;99.90;;;;;;5054400;28;20428;-77
2022/06/04 10:26:47;;;;;;;;;;;17.50;99.90;;;;;;5023536;28;19956;-74
2022/06/04 10:29:22;;;;;;;;;;;17.60;99.90;;;;;;5023034;28;19943;-79
2022/06/04 10:31:48;;;;;;;;;;;17.60;99.90;;;;;;5001307;28;20281;-75
2022/06/04 10:34:32;;;;;;;;;;;17.40;99.90;;;;;;5033898;28;19971;-76
2022/06/04 10:36:58;;;;;;;;;;;17.30;99.90;;;;;;5009995;28;19925;-77
2022/06/04 10:39:23;;;;;;;;;;;17.40;99.90;;;;;;5027840;28;19987;-80
2022/06/04 10:41:52;;;;;;;;;;;17.50;99.90;;;;;;5020286;28;19996;-78
2022/06/04 10:44:30;;;;;;;;;;;17.60;99.90;;;;;;5047847;28;19917;-76
2022/06/04 10:47:05;;;;;;;;;;;17.80;99.90;;;;;;5011964;28;19925;-76
2022/06/04 10:49:30;;;;;;;;;;;18.00;99.90;;;;;;5045032;28;19921;-74
2022/06/04 10:52:15;;;;;;;;;;;18.10;99.90;;;;;;5025416;28;19921;-77
2022/06/04 10:54:44;;;;;;;;;;;18.10;99.90;;;;;;5014661;28;20310;-78
2022/06/04 10:57:24;;;;;;;;;;;18.10;99.90;;;;;;5012045;28;19928;-75
2022/06/04 11:00:13;;;;;;;;;;;18.20;99.90;;;;;;5025894;28;19928;-77
2022/06/04 11:02:48;;;;;;;;;;;18.40;99.90;;;;;;5014173;28;19975;-77
2022/06/04 11:05:19;;;;;;;;;;;18.40;99.90;;;;;;5028549;28;19971;-79
2022/06/04 11:08:04;;;;;;;;;;;18.50;99.90;;;;;;5053397;28;20000;-74
2022/06/04 11:10:31;;;;;;;;;;;18.60;99.90;;;;;;5027364;28;19917;-79
2022/06/04 11:13:08;;;;;;;;;;;18.80;99.90;;;;;;5024987;28;19921;-78
2022/06/04 11:15:34;;;;;;;;;;;18.90;99.90;;;;;;5020655;28;20480;-78
2022/06/04 11:18:00;;;;;;;;;;;18.90;99.90;;;;;;5066885;28;19932;-77
2022/06/04 11:20:29;;;;;;;;;;;18.90;99.90;;;;;;5027961;28;19996;-76
2022/06/04 11:23:15;;;;;;;;;;;19.10;99.90;;;;;;5026881;28;20012;-75
2022/06/04 11:25:43;;;;;;;;;;;18.90;99.90;;;;;;5039558;28;19917;-79
2022/06/04 11:28:11;;;;;;;;;;;18.50;99.90;;;;;;5030277;28;19979;-77
2022/06/04 11:30:39;;;;;;;;;;;18.40;99.90;;;;;;5058288;28;19918;-75
2022/06/04 11:33:17;;;;;;;;;;;18.20;99.90;;;;;;5031056;28;19971;-75
2022/06/04 11:35:46;;;;;;;;;;;18.20;99.90;;;;;;5022355;28;19918;-78
2022/06/04 11:38:12;;;;;;;;;;;18.30;99.90;;;;;;5015469;28;19944;-80
2022/06/04 11:40:45;;;;;;;;;;;18.30;99.90;;;;;;5026492;28;19917;-76
2022/06/04 11:43:29;;;;;;;;;;;18.40;99.90;;;;;;5001033;28;19925;-77
2022/06/04 11:46:04;;;;;;;;;;;18.50;99.90;;;;;;4997505;28;19921;-73
2022/06/04 11:48:38;;;;;;;;;;;18.50;99.90;;;;;;5023099;28;19967;-77
2022/06/04 11:51:07;;;;;;;;;;;18.70;99.90;;;;;;5046906;28;19918;-75
2022/06/04 11:53:39;;;;;;;;;;;18.80;99.90;;;;;;4997344;28;20016;-75
2022/06/04 11:56:18;;;;;;;;;;;18.70;99.90;;;;;;5028401;28;19952;-80
2022/06/04 11:58:56;;;;;;;;;;;18.90;99.90;;;;;;5018728;28;20351;-74
2022/06/04 12:01:48;;;;;;;;;;;19.30;99.90;;;;;;5034145;28;20003;-78
2022/06/04 12:04:21;;;;;;;;;;;19.60;99.90;;;;;;5032087;28;20007;-78
2022/06/04 12:07:07;;;;;;;;;;;19.50;99.90;;;;;;5044623;28;19921;-78
2022/06/04 12:09:49;;;;;;;;;;;19.70;99.90;;;;;;5012325;28;19972;-77
2022/06/04 12:12:20;;;;;;;;;;;19.70;99.90;;;;;;5032100;28;19917;-80
2022/06/04 12:14:58;;;;;;;;;;;19.40;99.90;;;;;;5033886;28;19917;-76
2022/06/04 12:17:25;;;;;;;;;;;19.50;99.90;;;;;;5049279;28;19923;-78
2022/06/04 12:25:38;;;;;;;;;;;20.30;99.90;;;;;;5035635;28;19925;-74
2022/06/04 12:28:18;;;;;;;;;;;20.60;99.90;;;;;;5016292;28;20398;-76
2022/06/04 12:30:46;;;;;;;;;;;20.70;99.90;;;;;;5037997;28;20516;-81
2022/06/04 12:33:24;;;;;;;;;;;20.50;99.90;;;;;;5025461;28;19961;-78
2022/06/04 12:35:54;;;;;;;;;;;20.50;99.90;;;;;;4996681;28;19948;-76
2022/06/04 12:38:23;;;;;;;;;;;20.60;99.90;;;;;;5024712;28;19956;-78
2022/06/04 12:40:50;;;;;;;;;;;20.70;99.90;;;;;;5013618;28;20371;-76
2022/06/04 12:43:18;;;;;;;;;;;20.70;99.90;;;;;;5056835;28;19927;-76
2022/06/04 12:45:45;;;;;;;;;;;20.60;99.90;;;;;;5012138;28;19972;-78
2022/06/04 12:48:23;;;;;;;;;;;20.80;99.90;;;;;;5012193;28;19917;-75
2022/06/04 12:50:51;;;;;;;;;;;21.00;99.90;;;;;;5046750;28;20004;-77
2022/06/04 12:53:18;;;;;;;;;;;21.10;99.90;;;;;;5032367;28;19921;-80
2022/06/04 12:55:50;;;;;;;;;;;21.20;99.90;;;;;;5032024;28;19917;-77
2022/06/04 12:58:34;;;;;;;;;;;21.10;99.90;;;;;;5032205;28;19952;-77
2022/06/04 13:01:03;;;;;;;;;;;21.00;99.90;;;;;;5013121;28;19929;-76
2022/06/04 13:03:30;;;;;;;;;;;21.20;99.90;;;;;;5024057;28;19924;-77
2022/06/04 13:06:01;;;;;;;;;;;21.20;99.90;;;;;;5025540;28;19917;-75
2022/06/04 13:08:35;;;;;;;;;;;21.00;99.90;;;;;;5026207;28;19975;-75
2022/06/04 13:11:07;;;;;;;;;;;20.60;99.90;;;;;;5026117;28;20409;-78
2022/06/04 13:13:36;;;;;;;;;;;20.60;99.90;;;;;;5047836;28;20255;-76
2022/06/04 13:16:04;;;;;;;;;;;20.50;99.90;;;;;;5054571;28;19930;-75
2022/06/04 13:18:33;;;;;;;;;;;20.30;99.90;;;;;;5025352;28;19961;-78
2022/06/04 13:21:00;;;;;;;;;;;20.40;99.90;;;;;;5011649;28;19944;-81
2022/06/04 13:23:28;;;;;;;;;;;20.60;99.90;;;;;;5013760;28;19940;-79
2022/06/04 13:25:53;;;;;;;;;;;20.70;99.90;;;;;;5031893;28;19920;-78
2022/06/04 13:28:31;;;;;;;;;;;20.70;99.90;;;;;;5013209;28;19939;-75
2022/06/04 13:30:56;;;;;;;;;;;20.90;99.90;;;;;;5025880;28;19916;-81
2022/06/04 13:33:22;;;;;;;;;;;21.40;99.90;;;;;;4995380;28;19971;-73
2022/06/04 13:35:49;;;;;;;;;;;21.50;99.90;;;;;;5024837;28;19971;-77
2022/06/04 13:38:18;;;;;;;;;;;21.20;99.90;;;;;;5031717;28;19956;-77
2022/06/04 13:40:44;;;;;;;;;;;21.00;99.90;;;;;;5046401;28;19917;-76
2022/06/04 13:43:09;;;;;;;;;;;21.00;99.90;;;;;;5019250;28;19931;-77
2022/06/04 13:45:40;;;;;;;;;;;21.20;99.90;;;;;;5019089;28;20346;-77
2022/06/04 13:48:18;;;;;;;;;;;21.60;99.90;;;;;;5025686;28;19936;-77
2022/06/04 13:50:51;;;;;;;;;;;22.20;99.90;;;;;;5031972;28;19917;-77
2022/06/04 13:53:23;;;;;;;;;;;22.30;99.90;;;;;;5014946;28;19921;-79
2022/06/04 13:55:55;;;;;;;;;;;21.80;99.90;;;;;;5017019;28;19948;-75
2022/06/04 13:58:22;;;;;;;;;;;21.70;99.90;;;;;;5034183;28;19966;-79
2022/06/04 14:00:49;;;;;;;;;;;21.90;99.90;;;;;;5063548;28;19921;-76
2022/06/04 14:03:17;;;;;;;;;;;22.20;99.90;;;;;;5008366;28;19920;-75
2022/06/04 14:05:47;;;;;;;;;;;22.00;99.90;;;;;;5038476;28;19923;-73
2022/06/04 14:08:17;;;;;;;;;;;21.60;99.90;;;;;;5006571;28;20012;-76
2022/06/04 14:10:56;;;;;;;;;;;21.40;99.90;;;;;;5032820;28;19917;-77
2022/06/04 14:13:21;;;;;;;;;;;21.50;99.90;;;;;;5037482;28;19917;-78
2022/06/04 14:15:59;;;;;;;;;;;21.70;99.90;;;;;;5055360;28;19924;-79
2022/06/04 14:18:31;;;;;;;;;;;22.10;99.90;;;;;;5034481;28;19940;-76
2022/06/04 14:21:06;;;;;;;;;;;22.10;99.60;;;;;;5035361;28;19923;-74
2022/06/04 14:23:31;;;;;;;;;;;21.90;99.40;;;;;;5056170;28;19930;-78
2022/06/04 14:26:06;;;;;;;;;;;21.90;99.90;;;;;;5036981;28;20011;-78
2022/06/04 14:28:36;;;;;;;;;;;22.30;99.40;;;;;;5037499;28;20295;-77
2022/06/04 14:31:13;;;;;;;;;;;22.40;98.80;;;;;;5024067;28;19917;-75
2022/06/04 14:33:40;;;;;;;;;;;22.20;99.20;;;;;;5026808;28;20027;-76
2022/06/04 14:36:07;;;;;;;;;;;22.10;99.40;;;;;;5053335;28;20397;-78
2022/06/04 14:38:34;;;;;;;;;;;22.20;99.90;;;;;;5018213;28;19917;-76
2022/06/04 14:41:05;;;;;;;;;;;22.40;99.40;;;;;;5049255;28;19990;-78
2022/06/04 14:43:33;;;;;;;;;;;22.70;99.90;;;;;;5034490;28;19925;-75
2022/06/04 14:46:02;;;;;;;;;;;22.90;98.30;;;;;;5021903;28;20369;-74
2022/06/04 14:48:45;;;;;;;;;;;23.00;97.10;;;;;;5025946;28;19948;-75
2022/06/04 14:51:10;;;;;;;;;;;22.90;96.70;;;;;;5053040;28;19928;-79
2022/06/04 14:53:36;;;;;;;;;;;23.20;96.10;;;;;;5043052;28;20004;-78
2022/06/04 14:56:14;;;;;;;;;;;23.40;97.90;;;;;;5036105;28;19917;-75